createdAt,value
2018-10-07T00:00:49.865Z,9.27
2018-10-07T00:03:18.644Z,5.73
2018-10-07T00:05:47.934Z,10.40
2018-10-07T00:08:16.497Z,8.00
2018-10-07T00:10:45.098Z,15.17
2018-10-07T00:13:13.788Z,7.97
2018-10-07T00:15:42.746Z,4.70
2018-10-07T00:18:11.319Z,6.93
2018-10-07T00:20:39.937Z,9.80
2018-10-07T00:23:08.521Z,7.27
2018-10-07T00:25:37.106Z,7.10
2018-10-07T00:28:06.060Z,3.83
2018-10-07T00:30:34.673Z,8.37
2018-10-07T00:33:03.237Z,9.80
2018-10-07T00:35:31.832Z,4.10
2018-10-07T00:38:00.412Z,6.80
2018-10-07T00:40:29.013Z,4.93
2018-10-07T00:42:57.652Z,11.03
2018-10-07T00:45:26.310Z,9.37
2018-10-07T00:47:54.909Z,7.30
2018-10-07T00:50:23.549Z,6.60
2018-10-07T00:52:52.368Z,11.17
2018-10-07T00:55:21.733Z,6.60
2018-10-07T00:57:50.326Z,12.73
2018-10-07T01:00:19.175Z,20.30
2018-10-07T01:02:47.776Z,7.70
2018-10-07T01:05:16.394Z,7.67
2018-10-07T01:07:44.977Z,10.80
2018-10-07T01:10:13.576Z,9.70
2018-10-07T01:12:42.224Z,10.27
2018-10-07T01:15:10.887Z,20.10
2018-10-07T01:17:39.682Z,11.63
2018-10-07T01:20:08.360Z,5.10
2018-10-07T01:22:37.351Z,7.47
2018-10-07T01:25:06.237Z,6.50
2018-10-07T01:27:34.918Z,8.40
2018-10-07T01:30:05.080Z,4.03
2018-10-07T01:32:33.653Z,4.90
2018-10-07T01:35:02.260Z,13.90
2018-10-07T01:37:30.837Z,7.30
2018-10-07T01:39:59.434Z,8.33
2018-10-07T01:42:28.042Z,4.47
2018-10-07T01:44:56.660Z,5.50
2018-10-07T01:47:25.240Z,4.70
2018-10-07T01:49:54.514Z,4.43
2018-10-07T01:52:23.103Z,8.50
2018-10-07T01:54:51.712Z,8.07
2018-10-07T01:57:20.281Z,7.83
2018-10-07T01:59:49.005Z,6.00
2018-10-07T02:02:17.583Z,15.00
2018-10-07T02:04:46.180Z,8.50
2018-10-07T02:07:22.176Z,6.60
2018-10-07T02:09:55.495Z,5.20
2018-10-07T02:12:25.792Z,3.50
2018-10-07T02:14:55.045Z,9.13
2018-10-07T02:17:23.676Z,7.90
2018-10-07T02:19:52.281Z,5.53
2018-10-07T02:22:20.925Z,10.27
2018-10-07T02:24:49.691Z,12.57
2018-10-07T02:27:18.277Z,7.17
2018-10-07T02:29:46.857Z,9.50
2018-10-07T02:32:15.454Z,6.57
2018-10-07T02:34:44.025Z,5.17
2018-10-07T02:37:12.615Z,8.97
2018-10-07T02:39:41.176Z,7.90
2018-10-07T02:42:09.810Z,4.83
2018-10-07T02:44:38.393Z,7.67
2018-10-07T02:47:07.240Z,5.40
2018-10-07T02:49:35.796Z,5.83
2018-10-07T02:52:04.466Z,5.87
2018-10-07T02:54:33.403Z,5.87
2018-10-07T02:57:02.089Z,4.60
2018-10-07T02:59:30.751Z,8.40
2018-10-07T03:01:59.378Z,8.23
2018-10-07T03:04:28.027Z,13.50
2018-10-07T03:06:56.620Z,10.97
2018-10-07T03:09:25.231Z,4.97
2018-10-07T03:11:53.808Z,6.13
2018-10-07T03:14:22.394Z,8.87
2018-10-07T03:16:51.000Z,5.83
2018-10-07T03:19:19.574Z,9.03
2018-10-07T03:21:48.187Z,11.83
2018-10-07T03:24:16.759Z,7.47
2018-10-07T03:26:45.351Z,6.10
2018-10-07T03:29:13.979Z,5.47
2018-10-07T03:31:42.662Z,7.37
2018-10-07T03:34:11.649Z,15.50
2018-10-07T03:36:40.304Z,4.23
2018-10-07T03:39:09.360Z,6.73
2018-10-07T03:41:38.269Z,5.00
2018-10-07T03:44:06.933Z,6.27
2018-10-07T03:46:35.549Z,11.33
2018-10-07T03:49:04.141Z,10.20
2018-10-07T03:51:32.727Z,8.80
2018-10-07T03:54:01.297Z,4.73
2018-10-07T03:56:29.900Z,9.37
2018-10-07T03:58:58.481Z,6.47
2018-10-07T04:01:27.184Z,6.53
2018-10-07T04:03:55.777Z,5.90
2018-10-07T04:06:24.380Z,6.23
2018-10-07T04:08:52.966Z,7.20
2018-10-07T04:11:21.570Z,5.37
2018-10-07T04:13:50.139Z,4.60
2018-10-07T04:16:18.805Z,4.37
2018-10-07T04:18:47.337Z,4.90
2018-10-07T04:21:15.933Z,11.27
2018-10-07T04:23:44.496Z,8.30
2018-10-07T04:26:13.108Z,7.70
2018-10-07T04:28:41.688Z,6.03
2018-10-07T04:31:10.294Z,6.40
2018-10-07T04:33:38.865Z,4.83
2018-10-07T04:36:07.474Z,10.87
2018-10-07T04:38:36.128Z,5.13
2018-10-07T04:41:04.712Z,4.73
2018-10-07T04:43:33.312Z,6.90
2018-10-07T04:46:01.918Z,5.63
2018-10-07T04:48:30.538Z,6.50
2018-10-07T04:50:59.137Z,5.83
2018-10-07T04:53:27.706Z,7.23
2018-10-07T04:55:56.416Z,7.10
2018-10-07T04:58:25.016Z,8.13
2018-10-07T05:00:53.838Z,9.13
2018-10-07T05:03:22.445Z,8.40
2018-10-07T05:05:51.229Z,5.37
2018-10-07T05:08:19.916Z,8.90
2018-10-07T05:10:51.516Z,9.00
2018-10-07T05:13:42.053Z,8.80
2018-10-07T05:16:10.968Z,8.43
2018-10-07T05:18:39.584Z,7.17
2018-10-07T05:21:08.250Z,11.80
2018-10-07T05:23:36.878Z,9.60
2018-10-07T05:26:05.535Z,4.53
2018-10-07T05:28:34.130Z,6.53
2018-10-07T05:31:02.754Z,5.13
2018-10-07T05:33:31.411Z,7.53
2018-10-07T05:35:59.924Z,5.20
2018-10-07T05:38:28.534Z,5.07
2018-10-07T05:40:57.682Z,6.20
2018-10-07T05:43:26.603Z,9.40
2018-10-07T05:45:55.751Z,7.77
2018-10-07T05:48:24.349Z,5.70
2018-10-07T05:50:52.991Z,6.70
2018-10-07T05:53:21.611Z,10.63
2018-10-07T05:55:50.318Z,8.00
2018-10-07T05:58:19.178Z,7.30
2018-10-07T06:00:47.844Z,9.27
2018-10-07T06:03:22.748Z,9.17
2018-10-07T06:05:51.918Z,10.97
2018-10-07T06:08:21.069Z,5.87
2018-10-07T06:10:49.673Z,10.40
2018-10-07T06:13:18.321Z,7.33
2018-10-07T06:15:46.936Z,9.57
2018-10-07T06:18:15.589Z,11.70
2018-10-07T06:20:44.168Z,8.20
2018-10-07T06:23:12.805Z,8.97
2018-10-07T06:25:41.403Z,10.27
2018-10-07T06:28:10.034Z,10.50
2018-10-07T06:30:38.620Z,8.93
2018-10-07T06:33:07.287Z,13.27
2018-10-07T06:35:36.874Z,17.13
2018-10-07T06:38:08.345Z,16.27
2018-10-07T06:40:37.048Z,33.57
2018-10-07T06:43:05.713Z,37.63
2018-10-07T06:45:34.468Z,19.43
2018-10-07T06:48:03.205Z,9.77
2018-10-07T06:50:31.833Z,30.97
2018-10-07T06:53:00.447Z,17.80
2018-10-07T06:55:29.035Z,21.07
2018-10-07T06:57:57.656Z,17.33
2018-10-07T07:00:26.267Z,8.07
2018-10-07T07:02:54.892Z,23.97
2018-10-07T07:05:23.473Z,22.47
2018-10-07T07:07:52.060Z,23.53
2018-10-07T07:10:20.625Z,14.03
2018-10-07T07:12:51.082Z,8.77
2018-10-07T07:15:19.748Z,5.63
2018-10-07T07:17:48.369Z,6.33
2018-10-07T07:20:17.007Z,9.00
2018-10-07T07:22:45.598Z,6.23
2018-10-07T07:25:14.173Z,7.33
2018-10-07T07:27:42.985Z,4.53
2018-10-07T07:30:11.696Z,6.17
2018-10-07T07:32:40.270Z,6.80
2018-10-07T07:35:08.901Z,8.80
2018-10-07T07:37:37.485Z,7.60
2018-10-07T07:40:06.549Z,8.80
2018-10-07T07:42:35.156Z,8.83
2018-10-07T07:45:03.839Z,5.30
2018-10-07T07:47:32.408Z,5.73
2018-10-07T07:50:01.009Z,6.77
2018-10-07T07:52:29.587Z,6.70
2018-10-07T07:54:58.207Z,4.43
2018-10-07T07:57:26.791Z,11.90
2018-10-07T07:59:55.385Z,4.73
2018-10-07T08:02:23.962Z,6.37
2018-10-07T08:04:52.904Z,3.97
2018-10-07T08:07:21.473Z,4.93
2018-10-07T08:09:50.065Z,6.00
2018-10-07T08:12:18.658Z,8.10
2018-10-07T08:14:47.261Z,5.17
2018-10-07T08:17:15.842Z,5.00
2018-10-07T08:19:44.456Z,12.87
2018-10-07T08:22:13.152Z,5.30
2018-10-07T08:24:41.750Z,5.50
2018-10-07T08:27:10.759Z,9.43
2018-10-07T08:29:39.425Z,11.07
2018-10-07T08:32:07.978Z,12.13
2018-10-07T08:34:36.574Z,8.67
2018-10-07T08:37:05.214Z,8.63
2018-10-07T08:39:33.818Z,9.30
2018-10-07T08:42:02.422Z,8.97
2018-10-07T08:44:31.014Z,8.17
2018-10-07T08:46:59.630Z,7.00
2018-10-07T08:49:28.229Z,7.40
2018-10-07T08:51:56.800Z,9.67
2018-10-07T08:54:25.625Z,5.23
2018-10-07T08:56:54.196Z,6.60
2018-10-07T08:59:22.805Z,4.37
2018-10-07T09:01:51.404Z,8.70
2018-10-07T09:04:20.024Z,6.57
2018-10-07T09:06:48.598Z,4.63
2018-10-07T09:09:17.196Z,6.00
2018-10-07T09:11:45.765Z,6.00
2018-10-07T09:14:14.371Z,8.63
2018-10-07T09:16:42.957Z,10.97
2018-10-07T09:19:11.635Z,13.63
2018-10-07T09:21:40.217Z,6.20
2018-10-07T09:24:08.854Z,7.10
2018-10-07T09:26:37.451Z,5.53
2018-10-07T09:29:06.254Z,8.80
2018-10-07T09:31:34.890Z,7.17
2018-10-07T09:34:03.498Z,7.63
2018-10-07T09:36:32.080Z,9.67
2018-10-07T09:39:00.689Z,4.60
2018-10-07T09:41:29.268Z,14.93
2018-10-07T09:43:58.010Z,8.80
2018-10-07T09:46:26.680Z,8.00
2018-10-07T09:48:55.333Z,10.80
2018-10-07T09:51:24.046Z,6.73
2018-10-07T09:53:52.652Z,6.60
2018-10-07T09:56:21.241Z,8.50
2018-10-07T09:58:49.858Z,6.27
2018-10-07T10:01:18.487Z,9.23
2018-10-07T10:03:47.081Z,7.60
2018-10-07T10:06:15.661Z,13.23
2018-10-07T10:08:44.262Z,8.70
2018-10-07T10:11:13.061Z,5.87
2018-10-07T10:13:41.749Z,5.20
2018-10-07T10:16:10.454Z,9.60
2018-10-07T10:18:43.702Z,6.13
2018-10-07T10:21:37.421Z,6.47
2018-10-07T10:26:21.800Z,4.60
2018-10-07T10:29:05.153Z,9.63
2018-10-07T10:31:46.618Z,7.00
2018-10-07T10:36:30.436Z,6.10
2018-10-07T10:39:05.657Z,5.03
2018-10-07T10:42:00.889Z,7.60
2018-10-07T10:44:49.873Z,7.93
2018-10-07T10:47:26.687Z,7.43
2018-10-07T10:52:03.409Z,9.50
2018-10-07T10:54:48.570Z,11.90
2018-10-07T10:57:26.305Z,10.97
2018-10-07T11:00:26.604Z,8.07
2018-10-07T11:05:12.510Z,8.57
2018-10-07T11:08:00.114Z,7.70
2018-10-07T11:10:35.817Z,6.43
2018-10-07T11:13:21.544Z,7.40
2018-10-07T11:16:58.909Z,8.03
2018-10-07T11:21:46.034Z,7.23
2018-10-07T11:24:20.913Z,5.80
2018-10-07T11:27:16.657Z,5.90
2018-10-07T11:29:55.880Z,11.03
2018-10-07T11:33:37.140Z,6.03
2018-10-07T11:36:21.977Z,16.83
2018-10-07T11:39:06.139Z,6.23
2018-10-07T11:42:15.207Z,6.27
2018-10-07T11:45:06.578Z,9.90
2018-10-07T11:48:48.055Z,12.20
2018-10-07T11:51:57.822Z,6.70
2018-10-07T11:55:07.062Z,4.23
2018-10-07T11:57:35.716Z,5.23
2018-10-07T12:00:04.418Z,6.10
2018-10-07T12:02:33.069Z,10.40
2018-10-07T12:05:01.621Z,9.33
2018-10-07T12:07:31.810Z,7.57
2018-10-07T12:10:00.397Z,9.07
2018-10-07T12:12:29.004Z,5.13
2018-10-07T12:14:57.581Z,5.37
2018-10-07T12:17:26.193Z,12.30
2018-10-07T12:19:54.769Z,7.80
2018-10-07T12:22:23.375Z,6.43
2018-10-07T12:24:51.980Z,5.40
2018-10-07T12:27:20.585Z,6.50
2018-10-07T12:29:49.171Z,4.70
2018-10-07T12:32:17.793Z,7.57
2018-10-07T12:34:46.361Z,7.67
2018-10-07T12:37:14.972Z,7.33
2018-10-07T12:39:43.586Z,24.33
2018-10-07T12:42:12.284Z,14.50
2018-10-07T12:44:41.088Z,9.23
2018-10-07T12:47:09.691Z,12.03
2018-10-07T12:49:38.264Z,6.40
2018-10-07T12:52:06.955Z,7.53
2018-10-07T12:54:35.641Z,10.20
2018-10-07T12:57:04.328Z,7.30
2018-10-07T12:59:32.908Z,13.73
2018-10-07T13:02:01.516Z,7.00
2018-10-07T13:04:30.094Z,9.83
2018-10-07T13:06:58.705Z,4.77
2018-10-07T13:09:27.299Z,12.80
2018-10-07T13:11:56.248Z,11.33
2018-10-07T13:14:24.828Z,8.03
2018-10-07T13:16:53.429Z,10.53
2018-10-07T13:19:22.028Z,9.30
2018-10-07T13:21:50.621Z,12.33
2018-10-07T13:24:19.202Z,8.03
2018-10-07T13:26:47.761Z,11.10
2018-10-07T13:29:16.365Z,10.13
2018-10-07T13:31:44.965Z,17.53
2018-10-07T13:34:13.578Z,7.03
2018-10-07T13:36:42.161Z,10.83
2018-10-07T13:39:13.097Z,11.23
2018-10-07T13:41:42.064Z,9.87
2018-10-07T13:44:10.741Z,11.27
2018-10-07T13:46:39.334Z,8.27
2018-10-07T13:49:07.944Z,7.17
2018-10-07T13:51:36.516Z,15.50
2018-10-07T13:54:05.164Z,6.40
2018-10-07T13:56:33.748Z,8.90
2018-10-07T13:59:02.347Z,13.93
2018-10-07T14:01:30.925Z,9.93
2018-10-07T14:03:59.700Z,9.10
2018-10-07T14:06:28.241Z,7.53
2018-10-07T14:08:56.836Z,7.57
2018-10-07T14:11:25.520Z,15.43
2018-10-07T14:13:55.056Z,6.80
2018-10-07T14:16:23.717Z,8.97
2018-10-07T14:18:52.316Z,7.73
2018-10-07T14:21:20.876Z,8.73
2018-10-07T14:23:49.884Z,12.27
2018-10-07T14:26:18.422Z,20.13
2018-10-07T14:28:47.357Z,14.03
2018-10-07T14:31:16.005Z,8.87
2018-10-07T14:33:45.028Z,15.13
2018-10-07T14:36:13.616Z,11.20
2018-10-07T14:38:42.572Z,8.50
2018-10-07T14:41:11.154Z,12.30
2018-10-07T14:43:39.778Z,8.33
2018-10-07T14:46:08.374Z,11.57
2018-10-07T14:48:37.193Z,12.13
2018-10-07T14:51:07.543Z,10.57
2018-10-07T14:53:36.272Z,13.00
2018-10-07T14:56:04.849Z,17.63
2018-10-07T14:58:33.450Z,10.20
2018-10-07T15:01:02.046Z,13.70
2018-10-07T15:03:30.666Z,9.23
2018-10-07T15:05:59.458Z,18.00
2018-10-07T15:08:28.044Z,7.57
2018-10-07T15:10:56.652Z,14.07
2018-10-07T15:13:25.882Z,11.87
2018-10-07T15:15:54.465Z,11.80
2018-10-07T15:18:27.097Z,13.20
2018-10-07T15:20:55.729Z,12.70
2018-10-07T15:23:28.433Z,13.50
2018-10-07T15:25:57.030Z,12.40
2018-10-07T15:28:25.644Z,14.93
2018-10-07T15:30:54.276Z,13.63
2018-10-07T15:33:22.841Z,17.97
2018-10-07T15:35:51.432Z,14.67
2018-10-07T15:38:20.019Z,17.37
2018-10-07T15:40:48.632Z,10.73
2018-10-07T15:43:17.448Z,11.90
2018-10-07T15:45:46.044Z,13.57
2018-10-07T15:48:14.936Z,15.07
2018-10-07T15:50:43.554Z,9.57
2018-10-07T15:53:12.132Z,15.50
2018-10-07T15:55:41.054Z,11.57
2018-10-07T15:58:09.634Z,14.33
2018-10-07T16:00:38.258Z,15.10
2018-10-07T16:03:06.996Z,32.00
2018-10-07T16:05:35.729Z,13.60
2018-10-07T16:08:04.314Z,18.70
2018-10-07T16:10:32.917Z,12.50
2018-10-07T16:13:01.564Z,12.63
2018-10-07T16:15:30.185Z,11.43
2018-10-07T16:17:58.853Z,15.63
2018-10-07T16:20:27.464Z,19.43
2018-10-07T16:22:56.552Z,20.53
2018-10-07T16:25:25.296Z,13.33
2018-10-07T16:27:53.860Z,16.17
2018-10-07T16:30:22.462Z,13.60
2018-10-07T16:32:51.048Z,19.20
2018-10-07T16:35:19.922Z,15.40
2018-10-07T16:37:48.492Z,17.13
2018-10-07T16:40:17.097Z,21.23
2018-10-07T16:42:46.621Z,17.70
2018-10-07T16:45:15.328Z,24.67
2018-10-07T16:47:43.862Z,25.27
2018-10-07T16:50:12.461Z,25.73
2018-10-07T16:52:41.091Z,26.50
2018-10-07T16:55:10.136Z,28.47
2018-10-07T16:57:38.720Z,27.17
2018-10-07T17:00:07.695Z,31.20
2018-10-07T17:02:36.417Z,30.17
2018-10-07T17:05:05.067Z,27.23
2018-10-07T17:07:33.725Z,22.93
2018-10-07T17:10:02.380Z,28.10
2018-10-07T17:12:30.956Z,26.97
2018-10-07T17:14:59.572Z,29.33
2018-10-07T17:17:28.193Z,28.93
2018-10-07T17:19:56.930Z,33.40
2018-10-07T17:22:25.610Z,30.10
2018-10-07T17:24:54.217Z,30.77
2018-10-07T17:27:22.825Z,33.10
2018-10-07T17:29:51.400Z,28.63
2018-10-07T17:32:20.004Z,27.67
2018-10-07T17:34:48.573Z,25.87
2018-10-07T17:37:17.175Z,25.57
2018-10-07T17:39:45.757Z,26.80
2018-10-07T17:42:15.236Z,23.80
2018-10-07T17:44:43.829Z,25.77
2018-10-07T17:47:12.454Z,30.80
2018-10-07T17:49:41.046Z,28.47
2018-10-07T17:52:09.690Z,25.03
2018-10-07T17:54:38.274Z,26.63
2018-10-07T17:57:06.898Z,34.67
2018-10-07T17:59:35.474Z,25.83
2018-10-07T18:02:07.069Z,22.37
2018-10-07T18:04:35.649Z,32.77
2018-10-07T18:07:04.916Z,24.60
2018-10-07T18:09:33.501Z,26.50
2018-10-07T18:12:02.094Z,31.20
2018-10-07T18:14:33.017Z,26.60
2018-10-07T18:17:01.714Z,27.20
2018-10-07T18:19:30.300Z,25.70
2018-10-07T18:21:59.016Z,27.23
2018-10-07T18:24:27.943Z,22.47
2018-10-07T18:26:56.830Z,19.87
2018-10-07T18:29:25.452Z,18.60
2018-10-07T18:31:54.081Z,22.50
2018-10-07T18:34:23.052Z,21.50
2018-10-07T18:36:51.548Z,24.30
2018-10-07T18:39:20.121Z,22.40
2018-10-07T18:41:48.774Z,27.43
2018-10-07T18:44:17.367Z,22.73
2018-10-07T18:46:46.032Z,21.80
2018-10-07T18:49:14.704Z,19.10
2018-10-07T18:51:43.509Z,26.20
2018-10-07T18:54:12.097Z,23.73
2018-10-07T18:56:40.705Z,20.87
2018-10-07T18:59:09.360Z,24.57
2018-10-07T19:01:37.969Z,23.60
2018-10-07T19:04:06.629Z,27.37
2018-10-07T19:06:35.428Z,16.70
2018-10-07T19:09:05.447Z,25.73
2018-10-07T19:11:34.088Z,22.67
2018-10-07T19:14:02.676Z,24.23
2018-10-07T19:16:31.304Z,24.97
2018-10-07T19:18:59.980Z,24.40
2018-10-07T19:21:28.589Z,22.43
2018-10-07T19:23:57.195Z,18.53
2018-10-07T19:26:25.885Z,20.73
2018-10-07T19:28:54.593Z,19.93
2018-10-07T19:31:23.192Z,20.87
2018-10-07T19:33:51.776Z,31.50
2018-10-07T19:36:20.845Z,23.40
2018-10-07T19:38:50.445Z,26.20
2018-10-07T19:41:19.158Z,26.50
2018-10-07T19:43:47.760Z,31.00
2018-10-07T19:46:16.378Z,24.57
2018-10-07T19:48:44.984Z,29.73
2018-10-07T19:51:13.768Z,27.33
2018-10-07T19:53:42.397Z,26.10
2018-10-07T19:56:10.986Z,23.00
2018-10-07T19:58:39.864Z,27.80
2018-10-07T20:01:08.442Z,16.90
2018-10-07T20:03:37.066Z,18.27
2018-10-07T20:06:05.640Z,20.10
2018-10-07T20:08:34.361Z,20.83
2018-10-07T20:11:02.936Z,18.83
2018-10-07T20:13:32.981Z,17.03
2018-10-07T20:16:01.691Z,20.90
2018-10-07T20:18:30.516Z,19.70
2018-10-07T20:20:59.170Z,18.00
2018-10-07T20:23:27.780Z,33.90
2018-10-07T20:25:57.215Z,16.13
2018-10-07T20:28:26.008Z,17.40
2018-10-07T20:30:54.593Z,20.40
2018-10-07T20:33:24.011Z,54.47
2018-10-07T20:35:52.639Z,23.90
2018-10-07T20:38:21.307Z,17.10
2018-10-07T20:40:50.014Z,14.80
2018-10-07T20:43:18.563Z,19.67
2018-10-07T20:45:47.137Z,19.70
2018-10-07T20:48:16.063Z,18.80
2018-10-07T20:50:44.664Z,16.77
2018-10-07T20:53:13.266Z,13.90
2018-10-07T20:55:41.850Z,17.53
2018-10-07T20:58:10.444Z,21.23
2018-10-07T21:00:39.020Z,16.00
2018-10-07T21:03:07.675Z,17.43
2018-10-07T21:05:36.267Z,18.23
2018-10-07T21:08:04.936Z,16.37
2018-10-07T21:10:33.525Z,21.03
2018-10-07T21:13:02.242Z,17.57
2018-10-07T21:15:30.850Z,16.27
2018-10-07T21:17:59.456Z,18.93
2018-10-07T21:20:28.027Z,22.70
2018-10-07T21:22:56.633Z,19.90
2018-10-07T21:25:25.346Z,16.27
2018-10-07T21:27:54.015Z,18.70
2018-10-07T21:30:22.602Z,18.70
2018-10-07T21:32:51.356Z,16.70
2018-10-07T21:35:19.941Z,16.50
2018-10-07T21:37:48.552Z,12.60
2018-10-07T21:40:17.126Z,13.17
2018-10-07T21:42:45.750Z,18.37
2018-10-07T21:45:14.325Z,19.40
2018-10-07T21:47:43.917Z,15.33
2018-10-07T21:50:12.517Z,17.53
2018-10-07T21:52:41.115Z,24.13
2018-10-07T21:55:09.705Z,23.93
2018-10-07T21:57:38.314Z,26.53
2018-10-07T22:00:07.928Z,31.93
2018-10-07T22:02:36.770Z,62.70
2018-10-07T22:05:05.464Z,31.80
2018-10-07T22:07:34.072Z,25.80
2018-10-07T22:10:03.214Z,26.90
2018-10-07T22:12:31.820Z,18.70
2018-10-07T22:15:00.396Z,16.80
2018-10-07T22:17:28.993Z,18.30
2018-10-07T22:19:57.614Z,13.93
2018-10-07T22:22:26.185Z,17.27
2018-10-07T22:24:54.761Z,20.60
2018-10-07T22:27:23.356Z,16.07
2018-10-07T22:29:51.925Z,17.90
2018-10-07T22:32:20.525Z,23.93
2018-10-07T22:34:49.106Z,18.50
2018-10-07T22:37:17.707Z,21.67
2018-10-07T22:39:46.332Z,20.63
2018-10-07T22:42:15.009Z,15.00
2018-10-07T22:44:43.617Z,19.33
2018-10-07T22:47:12.620Z,17.80
2018-10-07T22:49:41.196Z,17.83
2018-10-07T22:52:09.810Z,18.83
2018-10-07T22:54:38.410Z,14.63
2018-10-07T22:57:07.185Z,16.47
2018-10-07T22:59:35.784Z,13.70
2018-10-07T23:02:04.432Z,16.73
2018-10-07T23:04:33.037Z,19.73
2018-10-07T23:07:02.277Z,18.13
2018-10-07T23:09:30.863Z,14.53
2018-10-07T23:11:59.460Z,15.90
2018-10-07T23:14:28.062Z,15.33
2018-10-07T23:16:56.645Z,21.23
2018-10-07T23:19:25.365Z,20.63
2018-10-07T23:21:53.953Z,19.00
2018-10-07T23:24:22.561Z,14.67
2018-10-07T23:26:51.139Z,25.33
2018-10-07T23:29:19.737Z,21.13
2018-10-07T23:31:48.588Z,14.70
2018-10-07T23:34:17.187Z,17.93
2018-10-07T23:36:45.762Z,20.73
2018-10-07T23:39:14.353Z,19.40
2018-10-07T23:41:42.985Z,21.23
2018-10-07T23:44:11.631Z,26.17
2018-10-07T23:46:40.213Z,17.00
2018-10-07T23:49:08.817Z,23.57
2018-10-07T23:51:37.408Z,31.83
2018-10-07T23:54:06.074Z,37.43
2018-10-07T23:56:34.663Z,20.77
2018-10-07T23:59:03.268Z,19.60
